sensor_id;sensor_type;location;lat;lon;timestamp;P1;durP1;ratioP1;P2;durP2;ratioP2
15307;SDS011;7755;52.208;6.964;2022-12-22T00:01:45;26.03;;;19.73;;
15307;SDS011;7755;52.208;6.964;2022-12-22T00:06:08;21.87;;;19.43;;
15307;SDS011;7755;52.208;6.964;2022-12-22T00:10:30;25.90;;;19.93;;
15307;SDS011;7755;52.208;6.964;2022-12-22T00:14:50;23.70;;;19.97;;
15307;SDS011;7755;52.208;6.964;2022-12-22T00:19:10;22.70;;;20.10;;
15307;SDS011;7755;52.208;6.964;2022-12-22T00:23:32;23.83;;;20.50;;
15307;SDS011;7755;52.208;6.964;2022-12-22T00:27:54;24.53;;;19.77;;
15307;SDS011;7755;52.208;6.964;2022-12-22T00:32:14;27.63;;;22.17;;
15307;SDS011;7755;52.208;6.964;2022-12-22T00:36:35;23.10;;;20.60;;
15307;SDS011;7755;52.208;6.964;2022-12-22T00:40:56;25.67;;;21.30;;
15307;SDS011;7755;52.208;6.964;2022-12-22T00:45:17;22.43;;;19.33;;
15307;SDS011;7755;52.208;6.964;2022-12-22T00:49:38;24.47;;;20.57;;
15307;SDS011;7755;52.208;6.964;2022-12-22T00:54:03;22.00;;;18.97;;
15307;SDS011;7755;52.208;6.964;2022-12-22T00:58:28;22.03;;;18.87;;
15307;SDS011;7755;52.208;6.964;2022-12-22T01:02:50;24.37;;;20.13;;
15307;SDS011;7755;52.208;6.964;2022-12-22T01:07:11;23.83;;;19.77;;
15307;SDS011;7755;52.208;6.964;2022-12-22T01:11:32;21.13;;;18.57;;
15307;SDS011;7755;52.208;6.964;2022-12-22T01:15:53;22.80;;;19.93;;
15307;SDS011;7755;52.208;6.964;2022-12-22T01:20:15;25.73;;;20.87;;
15307;SDS011;7755;52.208;6.964;2022-12-22T01:24:35;28.30;;;22.80;;
15307;SDS011;7755;52.208;6.964;2022-12-22T01:28:55;26.03;;;21.37;;
15307;SDS011;7755;52.208;6.964;2022-12-22T01:33:16;23.73;;;20.53;;
15307;SDS011;7755;52.208;6.964;2022-12-22T01:37:38;25.20;;;20.60;;
15307;SDS011;7755;52.208;6.964;2022-12-22T01:41:58;24.93;;;22.23;;
15307;SDS011;7755;52.208;6.964;2022-12-22T01:46:20;23.20;;;20.67;;
15307;SDS011;7755;52.208;6.964;2022-12-22T01:50:42;25.13;;;21.03;;
15307;SDS011;7755;52.208;6.964;2022-12-22T01:55:05;28.97;;;22.57;;
15307;SDS011;7755;52.208;6.964;2022-12-22T01:59:29;26.33;;;19.97;;
15307;SDS011;7755;52.208;6.964;2022-12-22T02:03:49;22.10;;;19.70;;
15307;SDS011;7755;52.208;6.964;2022-12-22T02:08:11;21.87;;;19.23;;
15307;SDS011;7755;52.208;6.964;2022-12-22T02:12:41;21.67;;;19.37;;
15307;SDS011;7755;52.208;6.964;2022-12-22T02:17:13;26.00;;;20.43;;
15307;SDS011;7755;52.208;6.964;2022-12-22T02:21:45;21.20;;;18.90;;
15307;SDS011;7755;52.208;6.964;2022-12-22T02:26:19;20.93;;;18.67;;
15307;SDS011;7755;52.208;6.964;2022-12-22T02:30:44;20.67;;;17.93;;
15307;SDS011;7755;52.208;6.964;2022-12-22T02:35:09;21.23;;;18.93;;
15307;SDS011;7755;52.208;6.964;2022-12-22T02:39:32;24.90;;;20.00;;
15307;SDS011;7755;52.208;6.964;2022-12-22T02:44:12;25.87;;;21.20;;
15307;SDS011;7755;52.208;6.964;2022-12-22T02:48:41;21.77;;;18.67;;
15307;SDS011;7755;52.208;6.964;2022-12-22T02:53:09;22.63;;;19.83;;
15307;SDS011;7755;52.208;6.964;2022-12-22T02:57:32;25.93;;;20.33;;
15307;SDS011;7755;52.208;6.964;2022-12-22T03:01:54;25.47;;;21.70;;
15307;SDS011;7755;52.208;6.964;2022-12-22T03:06:15;20.80;;;18.23;;
15307;SDS011;7755;52.208;6.964;2022-12-22T03:10:36;23.27;;;20.13;;
15307;SDS011;7755;52.208;6.964;2022-12-22T03:14:56;26.87;;;21.60;;
15307;SDS011;7755;52.208;6.964;2022-12-22T03:19:18;26.60;;;21.57;;
15307;SDS011;7755;52.208;6.964;2022-12-22T03:23:38;22.87;;;19.97;;
15307;SDS011;7755;52.208;6.964;2022-12-22T03:28:00;24.93;;;19.50;;
15307;SDS011;7755;52.208;6.964;2022-12-22T03:32:04;28.33;;;21.50;;
15307;SDS011;7755;52.208;6.964;2022-12-22T03:36:09;21.30;;;17.80;;
15307;SDS011;7755;52.208;6.964;2022-12-22T03:40:12;27.37;;;21.60;;
15307;SDS011;7755;52.208;6.964;2022-12-22T03:44:15;24.70;;;20.53;;
15307;SDS011;7755;52.208;6.964;2022-12-22T03:48:35;28.40;;;21.97;;
15307;SDS011;7755;52.208;6.964;2022-12-22T03:52:39;27.77;;;22.87;;
15307;SDS011;7755;52.208;6.964;2022-12-22T03:56:42;31.03;;;24.33;;
15307;SDS011;7755;52.208;6.964;2022-12-22T04:00:46;34.10;;;25.90;;
15307;SDS011;7755;52.208;6.964;2022-12-22T04:04:49;31.60;;;25.17;;
15307;SDS011;7755;52.208;6.964;2022-12-22T04:08:53;28.17;;;23.90;;
15307;SDS011;7755;52.208;6.964;2022-12-22T04:12:56;28.73;;;24.20;;
15307;SDS011;7755;52.208;6.964;2022-12-22T04:16:58;31.00;;;25.97;;
15307;SDS011;7755;52.208;6.964;2022-12-22T04:21:01;29.80;;;23.27;;
15307;SDS011;7755;52.208;6.964;2022-12-22T04:25:06;29.00;;;23.23;;
15307;SDS011;7755;52.208;6.964;2022-12-22T04:29:09;35.03;;;26.00;;
15307;SDS011;7755;52.208;6.964;2022-12-22T04:33:12;31.67;;;26.90;;
15307;SDS011;7755;52.208;6.964;2022-12-22T04:37:15;43.70;;;29.53;;
15307;SDS011;7755;52.208;6.964;2022-12-22T04:41:19;35.40;;;26.87;;
15307;SDS011;7755;52.208;6.964;2022-12-22T04:45:22;39.33;;;29.03;;
15307;SDS011;7755;52.208;6.964;2022-12-22T04:49:25;37.07;;;27.73;;
15307;SDS011;7755;52.208;6.964;2022-12-22T04:53:28;53.90;;;35.00;;
15307;SDS011;7755;52.208;6.964;2022-12-22T04:57:34;35.80;;;28.00;;
15307;SDS011;7755;52.208;6.964;2022-12-22T05:01:41;32.57;;;25.53;;
15307;SDS011;7755;52.208;6.964;2022-12-22T05:05:44;53.10;;;33.90;;
15307;SDS011;7755;52.208;6.964;2022-12-22T05:09:47;44.33;;;28.93;;
15307;SDS011;7755;52.208;6.964;2022-12-22T05:13:51;59.10;;;36.57;;
15307;SDS011;7755;52.208;6.964;2022-12-22T05:17:54;63.47;;;36.33;;
15307;SDS011;7755;52.208;6.964;2022-12-22T05:21:58;64.43;;;33.83;;
15307;SDS011;7755;52.208;6.964;2022-12-22T05:26:01;56.30;;;31.10;;
15307;SDS011;7755;52.208;6.964;2022-12-22T05:30:06;63.37;;;34.30;;
15307;SDS011;7755;52.208;6.964;2022-12-22T05:34:10;46.20;;;31.87;;
15307;SDS011;7755;52.208;6.964;2022-12-22T05:38:12;38.17;;;27.30;;
15307;SDS011;7755;52.208;6.964;2022-12-22T05:42:15;39.73;;;24.83;;
15307;SDS011;7755;52.208;6.964;2022-12-22T05:46:37;57.77;;;36.77;;
15307;SDS011;7755;52.208;6.964;2022-12-22T05:50:40;44.47;;;32.23;;
15307;SDS011;7755;52.208;6.964;2022-12-22T05:54:43;57.90;;;35.13;;
15307;SDS011;7755;52.208;6.964;2022-12-22T05:58:46;57.67;;;35.47;;
15307;SDS011;7755;52.208;6.964;2022-12-22T06:02:50;59.97;;;35.67;;
15307;SDS011;7755;52.208;6.964;2022-12-22T06:06:53;48.63;;;33.17;;
15307;SDS011;7755;52.208;6.964;2022-12-22T06:10:56;49.70;;;32.00;;
15307;SDS011;7755;52.208;6.964;2022-12-22T06:15:00;128.67;;;45.43;;
15307;SDS011;7755;52.208;6.964;2022-12-22T06:19:04;64.17;;;36.03;;
15307;SDS011;7755;52.208;6.964;2022-12-22T06:23:07;88.77;;;40.43;;
15307;SDS011;7755;52.208;6.964;2022-12-22T06:27:10;46.57;;;31.20;;
15307;SDS011;7755;52.208;6.964;2022-12-22T06:31:13;78.80;;;39.27;;
15307;SDS011;7755;52.208;6.964;2022-12-22T06:35:17;159.13;;;57.27;;
15307;SDS011;7755;52.208;6.964;2022-12-22T06:39:20;49.83;;;32.77;;
15307;SDS011;7755;52.208;6.964;2022-12-22T06:43:23;208.23;;;58.47;;
15307;SDS011;7755;52.208;6.964;2022-12-22T06:47:26;77.37;;;35.57;;
15307;SDS011;7755;52.208;6.964;2022-12-22T06:51:30;162.10;;;52.50;;
15307;SDS011;7755;52.208;6.964;2022-12-22T06:55:33;123.30;;;46.23;;
15307;SDS011;7755;52.208;6.964;2022-12-22T06:59:37;76.00;;;34.90;;
15307;SDS011;7755;52.208;6.964;2022-12-22T07:03:40;253.10;;;63.60;;
15307;SDS011;7755;52.208;6.964;2022-12-22T07:07:44;191.17;;;52.50;;
15307;SDS011;7755;52.208;6.964;2022-12-22T07:11:47;118.20;;;45.73;;
15307;SDS011;7755;52.208;6.964;2022-12-22T07:15:50;149.93;;;43.80;;
15307;SDS011;7755;52.208;6.964;2022-12-22T07:20:01;69.50;;;37.17;;
15307;SDS011;7755;52.208;6.964;2022-12-22T07:24:06;83.33;;;38.40;;
15307;SDS011;7755;52.208;6.964;2022-12-22T07:28:09;62.40;;;33.37;;
15307;SDS011;7755;52.208;6.964;2022-12-22T07:32:20;53.93;;;29.87;;
15307;SDS011;7755;52.208;6.964;2022-12-22T07:36:23;74.57;;;35.10;;
15307;SDS011;7755;52.208;6.964;2022-12-22T07:40:27;58.63;;;31.43;;
15307;SDS011;7755;52.208;6.964;2022-12-22T07:44:30;89.50;;;36.07;;
15307;SDS011;7755;52.208;6.964;2022-12-22T07:48:33;80.10;;;33.53;;
15307;SDS011;7755;52.208;6.964;2022-12-22T07:52:54;93.37;;;34.83;;
15307;SDS011;7755;52.208;6.964;2022-12-22T07:56:59;87.40;;;32.23;;
15307;SDS011;7755;52.208;6.964;2022-12-22T08:01:01;63.30;;;31.23;;
15307;SDS011;7755;52.208;6.964;2022-12-22T08:05:05;67.70;;;32.60;;
15307;SDS011;7755;52.208;6.964;2022-12-22T08:09:12;79.23;;;31.87;;
15307;SDS011;7755;52.208;6.964;2022-12-22T08:13:17;59.47;;;29.13;;
15307;SDS011;7755;52.208;6.964;2022-12-22T08:17:20;32.70;;;23.93;;
15307;SDS011;7755;52.208;6.964;2022-12-22T08:21:23;71.17;;;31.67;;
15307;SDS011;7755;52.208;6.964;2022-12-22T08:25:26;51.93;;;28.43;;
15307;SDS011;7755;52.208;6.964;2022-12-22T08:29:30;43.13;;;26.70;;
15307;SDS011;7755;52.208;6.964;2022-12-22T08:33:36;45.43;;;27.13;;
15307;SDS011;7755;52.208;6.964;2022-12-22T08:37:40;34.43;;;22.80;;
15307;SDS011;7755;52.208;6.964;2022-12-22T08:41:45;32.30;;;22.37;;
15307;SDS011;7755;52.208;6.964;2022-12-22T08:45:53;36.30;;;23.20;;
15307;SDS011;7755;52.208;6.964;2022-12-22T08:49:56;34.53;;;21.83;;
15307;SDS011;7755;52.208;6.964;2022-12-22T08:53:59;28.63;;;19.57;;
15307;SDS011;7755;52.208;6.964;2022-12-22T08:58:06;29.97;;;20.60;;
15307;SDS011;7755;52.208;6.964;2022-12-22T09:02:10;36.30;;;22.90;;
15307;SDS011;7755;52.208;6.964;2022-12-22T09:06:14;32.70;;;21.50;;
15307;SDS011;7755;52.208;6.964;2022-12-22T09:10:17;29.23;;;20.37;;
15307;SDS011;7755;52.208;6.964;2022-12-22T09:14:20;31.83;;;20.67;;
15307;SDS011;7755;52.208;6.964;2022-12-22T09:18:24;25.80;;;19.57;;
15307;SDS011;7755;52.208;6.964;2022-12-22T09:22:27;27.83;;;19.90;;
15307;SDS011;7755;52.208;6.964;2022-12-22T09:26:30;31.37;;;21.10;;
15307;SDS011;7755;52.208;6.964;2022-12-22T09:30:33;28.10;;;19.43;;
15307;SDS011;7755;52.208;6.964;2022-12-22T09:34:38;33.97;;;22.07;;
15307;SDS011;7755;52.208;6.964;2022-12-22T09:38:41;27.93;;;18.20;;
15307;SDS011;7755;52.208;6.964;2022-12-22T09:42:46;29.07;;;19.80;;
15307;SDS011;7755;52.208;6.964;2022-12-22T09:46:49;30.83;;;20.37;;
15307;SDS011;7755;52.208;6.964;2022-12-22T09:50:56;32.13;;;21.57;;
15307;SDS011;7755;52.208;6.964;2022-12-22T09:54:59;31.67;;;21.87;;
15307;SDS011;7755;52.208;6.964;2022-12-22T09:59:04;28.83;;;20.77;;
15307;SDS011;7755;52.208;6.964;2022-12-22T10:03:13;37.57;;;26.03;;
15307;SDS011;7755;52.208;6.964;2022-12-22T10:07:31;35.57;;;23.37;;
15307;SDS011;7755;52.208;6.964;2022-12-22T10:11:35;32.67;;;23.13;;
15307;SDS011;7755;52.208;6.964;2022-12-22T10:15:39;33.17;;;22.53;;
15307;SDS011;7755;52.208;6.964;2022-12-22T10:19:43;34.90;;;23.30;;
15307;SDS011;7755;52.208;6.964;2022-12-22T10:23:48;33.10;;;23.07;;
15307;SDS011;7755;52.208;6.964;2022-12-22T10:27:51;32.90;;;22.90;;
15307;SDS011;7755;52.208;6.964;2022-12-22T10:31:58;39.07;;;23.57;;
15307;SDS011;7755;52.208;6.964;2022-12-22T10:36:03;31.63;;;22.27;;
15307;SDS011;7755;52.208;6.964;2022-12-22T10:40:13;33.20;;;22.60;;
15307;SDS011;7755;52.208;6.964;2022-12-22T10:44:18;29.07;;;19.80;;
15307;SDS011;7755;52.208;6.964;2022-12-22T10:48:29;32.23;;;21.03;;
15307;SDS011;7755;52.208;6.964;2022-12-22T10:52:33;26.70;;;19.07;;
15307;SDS011;7755;52.208;6.964;2022-12-22T10:56:38;29.00;;;19.20;;
15307;SDS011;7755;52.208;6.964;2022-12-22T11:00:41;33.03;;;21.77;;
15307;SDS011;7755;52.208;6.964;2022-12-22T11:04:45;30.23;;;20.27;;
15307;SDS011;7755;52.208;6.964;2022-12-22T11:08:48;31.63;;;20.07;;
15307;SDS011;7755;52.208;6.964;2022-12-22T11:13:08;30.33;;;19.60;;
15307;SDS011;7755;52.208;6.964;2022-12-22T11:17:27;28.13;;;19.83;;
15307;SDS011;7755;52.208;6.964;2022-12-22T11:21:39;33.00;;;21.80;;
15307;SDS011;7755;52.208;6.964;2022-12-22T11:25:48;31.83;;;21.97;;
15307;SDS011;7755;52.208;6.964;2022-12-22T11:30:03;30.03;;;21.00;;
15307;SDS011;7755;52.208;6.964;2022-12-22T11:34:17;25.07;;;17.27;;
15307;SDS011;7755;52.208;6.964;2022-12-22T11:38:35;26.53;;;19.93;;
15307;SDS011;7755;52.208;6.964;2022-12-22T11:42:52;25.90;;;19.17;;
15307;SDS011;7755;52.208;6.964;2022-12-22T11:47:13;32.23;;;25.20;;
15307;SDS011;7755;52.208;6.964;2022-12-22T11:51:31;24.63;;;17.30;;
15307;SDS011;7755;52.208;6.964;2022-12-22T11:55:53;24.10;;;16.30;;
15307;SDS011;7755;52.208;6.964;2022-12-22T12:00:07;24.27;;;15.33;;
15307;SDS011;7755;52.208;6.964;2022-12-22T12:04:21;18.67;;;14.00;;
15307;SDS011;7755;52.208;6.964;2022-12-22T12:08:41;21.23;;;13.87;;
15307;SDS011;7755;52.208;6.964;2022-12-22T12:12:58;23.30;;;17.20;;
15307;SDS011;7755;52.208;6.964;2022-12-22T12:17:12;19.17;;;13.93;;
15307;SDS011;7755;52.208;6.964;2022-12-22T12:21:26;22.10;;;15.13;;
15307;SDS011;7755;52.208;6.964;2022-12-22T12:25:31;15.87;;;11.70;;
15307;SDS011;7755;52.208;6.964;2022-12-22T12:29:43;15.63;;;11.93;;
15307;SDS011;7755;52.208;6.964;2022-12-22T12:34:13;19.27;;;12.23;;
15307;SDS011;7755;52.208;6.964;2022-12-22T12:38:20;17.50;;;11.30;;
15307;SDS011;7755;52.208;6.964;2022-12-22T12:42:50;12.70;;;9.47;;
15307;SDS011;7755;52.208;6.964;2022-12-22T12:47:06;14.47;;;9.93;;
15307;SDS011;7755;52.208;6.964;2022-12-22T12:55:52;12.23;;;8.97;;
15307;SDS011;7755;52.208;6.964;2022-12-22T12:59:57;11.77;;;8.50;;
15307;SDS011;7755;52.208;6.964;2022-12-22T13:04:01;9.10;;;7.97;;
15307;SDS011;7755;52.208;6.964;2022-12-22T13:08:13;11.67;;;8.67;;
15307;SDS011;7755;52.208;6.964;2022-12-22T13:12:36;11.60;;;9.10;;
15307;SDS011;7755;52.208;6.964;2022-12-22T13:16:40;14.53;;;10.57;;
15307;SDS011;7755;52.208;6.964;2022-12-22T13:20:43;12.10;;;8.77;;
15307;SDS011;7755;52.208;6.964;2022-12-22T13:24:55;11.03;;;7.93;;
15307;SDS011;7755;52.208;6.964;2022-12-22T13:29:06;9.83;;;6.93;;
15307;SDS011;7755;52.208;6.964;2022-12-22T13:33:11;11.57;;;7.37;;
15307;SDS011;7755;52.208;6.964;2022-12-22T13:37:19;14.10;;;8.13;;
15307;SDS011;7755;52.208;6.964;2022-12-22T13:41:23;15.03;;;9.83;;
15307;SDS011;7755;52.208;6.964;2022-12-22T13:45:30;12.83;;;9.73;;
15307;SDS011;7755;52.208;6.964;2022-12-22T13:49:36;17.70;;;11.00;;
15307;SDS011;7755;52.208;6.964;2022-12-22T13:54:02;16.47;;;10.20;;
15307;SDS011;7755;52.208;6.964;2022-12-22T13:58:19;16.73;;;9.73;;
15307;SDS011;7755;52.208;6.964;2022-12-22T14:02:30;16.70;;;9.17;;
15307;SDS011;7755;52.208;6.964;2022-12-22T14:06:34;15.80;;;10.33;;
15307;SDS011;7755;52.208;6.964;2022-12-22T14:10:40;20.67;;;10.50;;
15307;SDS011;7755;52.208;6.964;2022-12-22T14:14:46;17.87;;;11.33;;
15307;SDS011;7755;52.208;6.964;2022-12-22T14:18:52;18.67;;;11.83;;
15307;SDS011;7755;52.208;6.964;2022-12-22T14:22:55;18.80;;;11.70;;
15307;SDS011;7755;52.208;6.964;2022-12-22T14:27:03;16.60;;;11.57;;
15307;SDS011;7755;52.208;6.964;2022-12-22T14:31:06;18.97;;;12.83;;
15307;SDS011;7755;52.208;6.964;2022-12-22T14:35:19;17.77;;;12.87;;
15307;SDS011;7755;52.208;6.964;2022-12-22T14:39:26;19.00;;;13.20;;
15307;SDS011;7755;52.208;6.964;2022-12-22T14:43:31;19.73;;;14.07;;
15307;SDS011;7755;52.208;6.964;2022-12-22T14:47:35;26.00;;;15.77;;
15307;SDS011;7755;52.208;6.964;2022-12-22T14:51:40;23.07;;;15.43;;
15307;SDS011;7755;52.208;6.964;2022-12-22T14:55:47;22.77;;;17.60;;
15307;SDS011;7755;52.208;6.964;2022-12-22T15:00:00;26.10;;;17.40;;
15307;SDS011;7755;52.208;6.964;2022-12-22T15:04:13;24.73;;;17.27;;
15307;SDS011;7755;52.208;6.964;2022-12-22T15:12:39;25.57;;;17.00;;
15307;SDS011;7755;52.208;6.964;2022-12-22T15:16:42;25.10;;;17.13;;
15307;SDS011;7755;52.208;6.964;2022-12-22T15:20:46;17.77;;;15.27;;
15307;SDS011;7755;52.208;6.964;2022-12-22T15:24:51;20.70;;;16.70;;
15307;SDS011;7755;52.208;6.964;2022-12-22T15:28:54;19.87;;;15.33;;
15307;SDS011;7755;52.208;6.964;2022-12-22T15:32:56;21.93;;;16.67;;
15307;SDS011;7755;52.208;6.964;2022-12-22T15:36:59;25.27;;;16.50;;
15307;SDS011;7755;52.208;6.964;2022-12-22T15:41:04;22.50;;;16.13;;
15307;SDS011;7755;52.208;6.964;2022-12-22T15:45:07;22.13;;;17.17;;
15307;SDS011;7755;52.208;6.964;2022-12-22T15:49:12;23.87;;;18.40;;
15307;SDS011;7755;52.208;6.964;2022-12-22T15:53:18;26.27;;;18.13;;
15307;SDS011;7755;52.208;6.964;2022-12-22T15:57:23;21.60;;;17.17;;
15307;SDS011;7755;52.208;6.964;2022-12-22T16:01:26;21.07;;;17.37;;
15307;SDS011;7755;52.208;6.964;2022-12-22T16:05:29;25.03;;;19.03;;
15307;SDS011;7755;52.208;6.964;2022-12-22T16:09:32;23.03;;;18.30;;
15307;SDS011;7755;52.208;6.964;2022-12-22T16:13:43;27.10;;;19.53;;
15307;SDS011;7755;52.208;6.964;2022-12-22T16:17:46;23.30;;;19.07;;
15307;SDS011;7755;52.208;6.964;2022-12-22T16:21:52;24.97;;;19.83;;
15307;SDS011;7755;52.208;6.964;2022-12-22T16:25:55;30.40;;;21.07;;
15307;SDS011;7755;52.208;6.964;2022-12-22T16:30:05;25.90;;;20.47;;
15307;SDS011;7755;52.208;6.964;2022-12-22T16:34:13;23.87;;;19.23;;
15307;SDS011;7755;52.208;6.964;2022-12-22T16:38:16;24.93;;;20.07;;
15307;SDS011;7755;52.208;6.964;2022-12-22T16:42:20;25.37;;;20.50;;
15307;SDS011;7755;52.208;6.964;2022-12-22T16:46:42;25.30;;;18.93;;
15307;SDS011;7755;52.208;6.964;2022-12-22T16:50:45;29.43;;;21.87;;
15307;SDS011;7755;52.208;6.964;2022-12-22T16:54:48;29.33;;;21.77;;
15307;SDS011;7755;52.208;6.964;2022-12-22T16:58:53;28.73;;;21.80;;
15307;SDS011;7755;52.208;6.964;2022-12-22T17:02:59;30.53;;;23.57;;
15307;SDS011;7755;52.208;6.964;2022-12-22T17:07:05;36.33;;;29.00;;
15307;SDS011;7755;52.208;6.964;2022-12-22T17:11:09;32.40;;;24.17;;
15307;SDS011;7755;52.208;6.964;2022-12-22T17:15:18;36.10;;;26.40;;
15307;SDS011;7755;52.208;6.964;2022-12-22T17:19:24;32.07;;;26.20;;
15307;SDS011;7755;52.208;6.964;2022-12-22T17:23:28;30.40;;;25.20;;
15307;SDS011;7755;52.208;6.964;2022-12-22T17:27:33;31.53;;;23.70;;
15307;SDS011;7755;52.208;6.964;2022-12-22T17:31:36;33.60;;;25.63;;
15307;SDS011;7755;52.208;6.964;2022-12-22T17:35:41;31.33;;;23.93;;
15307;SDS011;7755;52.208;6.964;2022-12-22T17:39:45;35.37;;;28.27;;
15307;SDS011;7755;52.208;6.964;2022-12-22T17:43:50;34.60;;;27.93;;
15307;SDS011;7755;52.208;6.964;2022-12-22T17:47:53;33.20;;;26.13;;
15307;SDS011;7755;52.208;6.964;2022-12-22T17:51:57;32.87;;;25.17;;
15307;SDS011;7755;52.208;6.964;2022-12-22T17:56:00;34.77;;;27.00;;
15307;SDS011;7755;52.208;6.964;2022-12-22T18:00:14;35.77;;;26.87;;
15307;SDS011;7755;52.208;6.964;2022-12-22T18:04:19;32.83;;;26.60;;
15307;SDS011;7755;52.208;6.964;2022-12-22T18:08:23;41.27;;;29.27;;
15307;SDS011;7755;52.208;6.964;2022-12-22T18:12:26;34.63;;;26.93;;
15307;SDS011;7755;52.208;6.964;2022-12-22T18:16:30;31.70;;;25.60;;
15307;SDS011;7755;52.208;6.964;2022-12-22T18:20:33;36.43;;;29.97;;
15307;SDS011;7755;52.208;6.964;2022-12-22T18:24:37;40.40;;;29.00;;
15307;SDS011;7755;52.208;6.964;2022-12-22T18:28:40;40.10;;;29.63;;
15307;SDS011;7755;52.208;6.964;2022-12-22T18:32:43;32.87;;;25.40;;
15307;SDS011;7755;52.208;6.964;2022-12-22T18:36:46;32.90;;;26.67;;
15307;SDS011;7755;52.208;6.964;2022-12-22T18:40:51;33.13;;;23.87;;
15307;SDS011;7755;52.208;6.964;2022-12-22T18:44:54;32.50;;;25.73;;
15307;SDS011;7755;52.208;6.964;2022-12-22T18:48:56;33.97;;;24.20;;
15307;SDS011;7755;52.208;6.964;2022-12-22T18:53:07;28.73;;;23.53;;
15307;SDS011;7755;52.208;6.964;2022-12-22T18:57:21;43.07;;;31.30;;
15307;SDS011;7755;52.208;6.964;2022-12-22T19:01:24;35.17;;;27.30;;
15307;SDS011;7755;52.208;6.964;2022-12-22T19:05:28;39.20;;;28.80;;
15307;SDS011;7755;52.208;6.964;2022-12-22T19:09:33;39.40;;;29.33;;
15307;SDS011;7755;52.208;6.964;2022-12-22T19:13:37;38.40;;;29.00;;
15307;SDS011;7755;52.208;6.964;2022-12-22T19:17:43;43.77;;;30.97;;
15307;SDS011;7755;52.208;6.964;2022-12-22T19:21:46;48.87;;;32.17;;
15307;SDS011;7755;52.208;6.964;2022-12-22T19:25:51;42.90;;;32.57;;
15307;SDS011;7755;52.208;6.964;2022-12-22T19:29:57;46.47;;;32.70;;
15307;SDS011;7755;52.208;6.964;2022-12-22T19:34:05;33.50;;;26.93;;
15307;SDS011;7755;52.208;6.964;2022-12-22T19:38:16;42.30;;;30.90;;
15307;SDS011;7755;52.208;6.964;2022-12-22T19:42:21;45.83;;;32.20;;
15307;SDS011;7755;52.208;6.964;2022-12-22T19:46:27;40.77;;;28.43;;
15307;SDS011;7755;52.208;6.964;2022-12-22T19:50:34;41.47;;;31.50;;
15307;SDS011;7755;52.208;6.964;2022-12-22T19:54:37;32.83;;;25.47;;
15307;SDS011;7755;52.208;6.964;2022-12-22T19:58:40;42.43;;;31.93;;
15307;SDS011;7755;52.208;6.964;2022-12-22T20:02:45;37.07;;;28.57;;
15307;SDS011;7755;52.208;6.964;2022-12-22T20:06:49;30.40;;;25.83;;
15307;SDS011;7755;52.208;6.964;2022-12-22T20:10:51;33.60;;;27.87;;
15307;SDS011;7755;52.208;6.964;2022-12-22T20:14:59;36.63;;;28.13;;
15307;SDS011;7755;52.208;6.964;2022-12-22T20:19:04;37.27;;;27.80;;
15307;SDS011;7755;52.208;6.964;2022-12-22T20:23:11;29.43;;;23.90;;
15307;SDS011;7755;52.208;6.964;2022-12-22T20:27:17;43.57;;;32.67;;
15307;SDS011;7755;52.208;6.964;2022-12-22T20:31:23;40.03;;;28.90;;
15307;SDS011;7755;52.208;6.964;2022-12-22T20:35:27;36.03;;;27.27;;
15307;SDS011;7755;52.208;6.964;2022-12-22T20:39:30;47.27;;;29.63;;
15307;SDS011;7755;52.208;6.964;2022-12-22T20:43:34;30.87;;;25.23;;
15307;SDS011;7755;52.208;6.964;2022-12-22T20:47:38;40.13;;;28.63;;
15307;SDS011;7755;52.208;6.964;2022-12-22T20:51:42;31.33;;;24.40;;
15307;SDS011;7755;52.208;6.964;2022-12-22T20:55:45;29.17;;;22.73;;
15307;SDS011;7755;52.208;6.964;2022-12-22T20:59:49;26.83;;;22.53;;
15307;SDS011;7755;52.208;6.964;2022-12-22T21:03:57;30.50;;;22.00;;
15307;SDS011;7755;52.208;6.964;2022-12-22T21:08:01;19.67;;;16.97;;
15307;SDS011;7755;52.208;6.964;2022-12-22T21:12:04;23.13;;;19.40;;
15307;SDS011;7755;52.208;6.964;2022-12-22T21:16:07;21.80;;;17.50;;
15307;SDS011;7755;52.208;6.964;2022-12-22T21:20:15;22.53;;;17.10;;
15307;SDS011;7755;52.208;6.964;2022-12-22T21:24:22;24.77;;;18.00;;
15307;SDS011;7755;52.208;6.964;2022-12-22T21:28:26;52.43;;;41.47;;
15307;SDS011;7755;52.208;6.964;2022-12-22T21:32:33;23.57;;;20.47;;
15307;SDS011;7755;52.208;6.964;2022-12-22T21:36:35;34.47;;;30.63;;
15307;SDS011;7755;52.208;6.964;2022-12-22T21:40:40;31.27;;;25.30;;
15307;SDS011;7755;52.208;6.964;2022-12-22T21:44:46;23.83;;;18.57;;
15307;SDS011;7755;52.208;6.964;2022-12-22T21:48:50;17.93;;;14.57;;
15307;SDS011;7755;52.208;6.964;2022-12-22T21:52:53;15.50;;;13.50;;
15307;SDS011;7755;52.208;6.964;2022-12-22T21:56:57;19.03;;;14.97;;
15307;SDS011;7755;52.208;6.964;2022-12-22T22:01:00;17.47;;;13.83;;
15307;SDS011;7755;52.208;6.964;2022-12-22T22:05:03;19.03;;;14.70;;
15307;SDS011;7755;52.208;6.964;2022-12-22T22:09:06;17.83;;;14.07;;
15307;SDS011;7755;52.208;6.964;2022-12-22T22:13:12;21.03;;;15.40;;
15307;SDS011;7755;52.208;6.964;2022-12-22T22:17:16;16.97;;;14.23;;
15307;SDS011;7755;52.208;6.964;2022-12-22T22:21:19;19.93;;;14.87;;
15307;SDS011;7755;52.208;6.964;2022-12-22T22:25:22;17.73;;;13.90;;
15307;SDS011;7755;52.208;6.964;2022-12-22T22:29:26;20.73;;;15.07;;
15307;SDS011;7755;52.208;6.964;2022-12-22T22:33:29;21.57;;;15.40;;
15307;SDS011;7755;52.208;6.964;2022-12-22T22:37:32;19.17;;;14.73;;
15307;SDS011;7755;52.208;6.964;2022-12-22T22:41:35;19.47;;;14.40;;
15307;SDS011;7755;52.208;6.964;2022-12-22T22:45:45;16.77;;;14.00;;
15307;SDS011;7755;52.208;6.964;2022-12-22T22:49:48;19.33;;;14.03;;
15307;SDS011;7755;52.208;6.964;2022-12-22T22:53:50;19.53;;;14.80;;
15307;SDS011;7755;52.208;6.964;2022-12-22T22:57:53;18.47;;;14.60;;
15307;SDS011;7755;52.208;6.964;2022-12-22T23:01:57;19.47;;;15.93;;
15307;SDS011;7755;52.208;6.964;2022-12-22T23:06:01;16.23;;;14.40;;
15307;SDS011;7755;52.208;6.964;2022-12-22T23:10:04;18.97;;;14.90;;
15307;SDS011;7755;52.208;6.964;2022-12-22T23:14:07;20.23;;;16.63;;
15307;SDS011;7755;52.208;6.964;2022-12-22T23:18:14;21.77;;;16.23;;
15307;SDS011;7755;52.208;6.964;2022-12-22T23:22:17;19.00;;;15.37;;
15307;SDS011;7755;52.208;6.964;2022-12-22T23:26:19;20.47;;;16.47;;
15307;SDS011;7755;52.208;6.964;2022-12-22T23:30:22;21.87;;;15.37;;
15307;SDS011;7755;52.208;6.964;2022-12-22T23:34:27;18.17;;;14.03;;
15307;SDS011;7755;52.208;6.964;2022-12-22T23:38:30;20.20;;;16.13;;
15307;SDS011;7755;52.208;6.964;2022-12-22T23:42:33;21.37;;;17.47;;
15307;SDS011;7755;52.208;6.964;2022-12-22T23:46:36;16.77;;;13.83;;
15307;SDS011;7755;52.208;6.964;2022-12-22T23:50:40;18.27;;;13.40;;
15307;SDS011;7755;52.208;6.964;2022-12-22T23:54:46;19.47;;;13.43;;
15307;SDS011;7755;52.208;6.964;2022-12-22T23:58:49;16.33;;;12.70;;
